createdAt,value
2016-10-01T00:00:35.540Z,0.00
2016-10-01T00:01:36.051Z,0.00
2016-10-01T00:02:36.555Z,0.00
2016-10-01T00:03:37.065Z,0.00
2016-10-01T00:04:37.752Z,0.00
2016-10-01T00:05:38.092Z,0.00
2016-10-01T00:06:38.606Z,0.00
2016-10-01T00:07:39.117Z,0.00
2016-10-01T00:08:39.636Z,0.00
2016-10-01T00:09:40.163Z,0.00
2016-10-01T00:10:40.648Z,0.00
2016-10-01T00:11:41.161Z,0.00
2016-10-01T00:12:41.670Z,0.00
2016-10-01T00:13:42.330Z,0.00
2016-10-01T00:14:42.701Z,0.00
2016-10-01T00:15:43.212Z,0.00
2016-10-01T00:16:43.730Z,0.00
2016-10-01T00:17:44.258Z,0.00
2016-10-01T00:18:44.771Z,0.00
2016-10-01T00:19:45.278Z,0.00
2016-10-01T00:20:45.791Z,0.00
2016-10-01T00:21:46.305Z,0.00
2016-10-01T00:22:47.562Z,0.00
2016-10-01T00:23:47.323Z,0.00
2016-10-01T00:24:47.841Z,0.00
2016-10-01T00:25:48.357Z,0.00
2016-10-01T00:26:48.867Z,0.00
2016-10-01T00:27:49.398Z,0.00
2016-10-01T00:28:49.887Z,0.00
2016-10-01T00:29:50.402Z,0.00
2016-10-01T00:30:50.914Z,0.00
2016-10-01T00:31:51.428Z,0.00
2016-10-01T00:32:51.939Z,0.00
2016-10-01T00:33:52.470Z,0.00
2016-10-01T00:34:52.969Z,0.00
2016-10-01T00:35:53.482Z,0.00
2016-10-01T00:36:53.989Z,0.00
2016-10-01T00:37:54.505Z,0.00
2016-10-01T00:38:55.015Z,0.00
2016-10-01T00:39:55.527Z,0.00
2016-10-01T00:40:56.041Z,0.00
2016-10-01T00:41:56.709Z,0.00
2016-10-01T00:42:57.071Z,0.00
2016-10-01T00:43:57.578Z,0.00
2016-10-01T00:44:58.091Z,0.00
2016-10-01T00:45:58.603Z,0.00
2016-10-01T00:46:59.130Z,0.00
2016-10-01T00:47:59.632Z,0.00
2016-10-01T00:49:00.167Z,0.00
2016-10-01T00:50:00.657Z,0.00
2016-10-01T00:51:01.170Z,0.00
2016-10-01T00:52:01.684Z,0.00
2016-10-01T00:53:02.199Z,0.00
2016-10-01T00:54:02.717Z,0.00
2016-10-01T00:55:03.377Z,0.00
2016-10-01T00:56:03.743Z,0.00
2016-10-01T00:57:04.412Z,0.00
2016-10-01T00:58:04.776Z,0.00
2016-10-01T00:59:05.304Z,0.00
2016-10-01T01:00:05.806Z,0.00
2016-10-01T01:01:06.330Z,0.00
2016-10-01T01:02:06.848Z,0.00
2016-10-01T01:03:07.346Z,0.00
2016-10-01T01:04:07.860Z,0.00
2016-10-01T01:05:08.377Z,0.00
2016-10-01T01:06:08.893Z,0.00
2016-10-01T01:07:09.399Z,0.00
2016-10-01T01:08:09.906Z,0.00
2016-10-01T01:09:10.424Z,0.00
2016-10-01T01:10:10.937Z,0.00
2016-10-01T01:11:13.100Z,0.00
2016-10-01T01:12:11.956Z,0.00
2016-10-01T01:13:12.473Z,0.00
2016-10-01T01:14:12.997Z,0.00
2016-10-01T01:15:13.493Z,0.00
2016-10-01T01:16:14.155Z,0.00
2016-10-01T01:17:14.511Z,0.00
2016-10-01T01:18:15.021Z,0.00
2016-10-01T01:19:15.566Z,0.00
2016-10-01T01:20:16.047Z,0.00
2016-10-01T01:21:16.588Z,0.00
2016-10-01T01:22:17.070Z,0.00
2016-10-01T01:23:17.587Z,0.00
2016-10-01T01:24:18.098Z,0.00
2016-10-01T01:25:18.763Z,0.00
2016-10-01T01:26:19.124Z,0.00
2016-10-01T01:27:19.641Z,0.00
2016-10-01T01:28:20.147Z,0.00
2016-10-01T01:29:20.807Z,0.00
2016-10-01T01:30:21.171Z,0.00
2016-10-01T01:31:21.689Z,0.00
2016-10-01T01:32:22.203Z,0.00
2016-10-01T01:33:22.719Z,0.00
2016-10-01T01:34:23.229Z,0.00
2016-10-01T01:35:23.738Z,0.00
2016-10-01T01:36:24.255Z,0.00
2016-10-01T01:37:24.760Z,0.00
2016-10-01T01:38:25.283Z,0.00
2016-10-01T01:39:25.786Z,0.00
2016-10-01T01:40:26.447Z,0.00
2016-10-01T01:41:26.818Z,0.00
2016-10-01T01:42:27.320Z,0.00
2016-10-01T01:43:27.836Z,0.00
2016-10-01T01:44:28.345Z,0.00
2016-10-01T01:45:28.869Z,0.00
2016-10-01T01:46:29.530Z,0.00
2016-10-01T01:47:29.887Z,0.00
2016-10-01T01:48:30.398Z,0.00
2016-10-01T01:49:30.909Z,0.00
2016-10-01T01:50:31.423Z,0.00
2016-10-01T01:51:31.939Z,0.00
2016-10-01T01:52:32.452Z,0.00
2016-10-01T01:53:33.115Z,0.00
2016-10-01T01:54:33.624Z,0.00
2016-10-01T01:55:33.984Z,0.00
2016-10-01T01:56:34.494Z,0.00
2016-10-01T01:57:35.007Z,0.00
2016-10-01T01:58:35.516Z,0.00
2016-10-01T01:59:36.199Z,0.00
2016-10-01T02:00:36.539Z,0.00
2016-10-01T02:01:37.050Z,0.00
2016-10-01T02:02:37.567Z,0.00
2016-10-01T02:03:38.075Z,0.00
2016-10-01T02:04:38.593Z,0.00
2016-10-01T02:05:39.103Z,0.00
2016-10-01T02:06:39.615Z,0.00
2016-10-01T02:07:40.142Z,0.00
2016-10-01T02:08:40.652Z,0.00
2016-10-01T02:09:41.168Z,0.00
2016-10-01T02:10:41.684Z,0.00
2016-10-01T02:11:42.349Z,0.00
2016-10-01T02:12:42.713Z,0.00
2016-10-01T02:13:43.222Z,0.00
2016-10-01T02:14:43.731Z,0.00
2016-10-01T02:15:44.244Z,0.00
2016-10-01T02:16:44.763Z,0.00
2016-10-01T02:17:46.183Z,0.00
2016-10-01T02:18:45.786Z,0.00
2016-10-01T02:19:46.296Z,0.00
2016-10-01T02:20:46.812Z,0.00
2016-10-01T02:21:47.323Z,0.00
2016-10-01T02:22:47.990Z,0.00
2016-10-01T02:23:48.377Z,0.00
2016-10-01T02:24:48.865Z,0.00
2016-10-01T02:25:49.382Z,0.00
2016-10-01T02:26:49.903Z,0.00
2016-10-01T02:27:50.415Z,0.00
2016-10-01T02:28:51.065Z,0.00
2016-10-01T02:29:51.426Z,0.00
2016-10-01T02:30:51.945Z,0.00
2016-10-01T02:31:52.458Z,0.00
2016-10-01T02:32:53.119Z,0.00
2016-10-01T02:33:53.485Z,0.00
2016-10-01T02:34:53.998Z,0.00
2016-10-01T02:35:54.504Z,0.00
2016-10-01T02:36:55.015Z,0.00
2016-10-01T02:37:55.530Z,0.00
2016-10-01T02:38:56.041Z,0.00
2016-10-01T02:39:56.557Z,0.00
2016-10-01T02:40:57.066Z,0.00
2016-10-01T02:41:57.888Z,0.00
2016-10-01T02:42:58.093Z,0.00
2016-10-01T02:43:58.625Z,0.00
2016-10-01T02:44:59.120Z,0.00
2016-10-01T02:45:59.819Z,0.00
2016-10-01T02:47:00.178Z,0.00
2016-10-01T02:48:02.477Z,0.00
2016-10-01T02:49:01.184Z,0.00
2016-10-01T02:50:01.691Z,0.00
2016-10-01T02:51:02.209Z,0.00
2016-10-01T02:52:02.865Z,0.00
2016-10-01T02:53:03.224Z,0.00
2016-10-01T02:54:03.736Z,0.00
2016-10-01T02:55:04.245Z,0.00
2016-10-01T02:56:04.761Z,0.00
2016-10-01T02:57:05.268Z,0.00
2016-10-01T02:58:05.780Z,0.00
2016-10-01T02:59:06.291Z,0.00
2016-10-01T03:00:06.803Z,0.00
2016-10-01T03:01:07.313Z,0.00
2016-10-01T03:02:07.825Z,0.00
2016-10-01T03:03:08.340Z,0.00
2016-10-01T03:04:08.851Z,0.00
2016-10-01T03:05:09.363Z,0.00
2016-10-01T03:06:09.873Z,0.00
2016-10-01T03:07:10.537Z,0.00
2016-10-01T03:08:10.898Z,0.00
2016-10-01T03:09:11.409Z,0.00
2016-10-01T03:10:11.915Z,0.00
2016-10-01T03:11:12.433Z,0.00
2016-10-01T03:12:12.948Z,0.00
2016-10-01T03:13:13.605Z,0.00
2016-10-01T03:14:13.963Z,0.00
2016-10-01T03:15:14.479Z,0.00
2016-10-01T03:16:14.992Z,0.00
2016-10-01T03:17:15.648Z,0.00
2016-10-01T03:18:16.014Z,0.00
2016-10-01T03:19:16.522Z,0.00
2016-10-01T03:20:17.032Z,0.00
2016-10-01T03:21:17.546Z,0.00
2016-10-01T03:22:18.069Z,0.00
2016-10-01T03:23:18.580Z,0.00
2016-10-01T03:24:19.104Z,0.00
2016-10-01T03:25:19.613Z,0.00
2016-10-01T03:26:20.135Z,0.00
2016-10-01T03:27:20.649Z,0.00
2016-10-01T03:28:21.153Z,0.00
2016-10-01T03:29:21.665Z,0.00
2016-10-01T03:30:22.182Z,0.00
2016-10-01T03:31:22.692Z,0.00
2016-10-01T03:32:23.211Z,0.00
2016-10-01T03:33:23.870Z,0.00
2016-10-01T03:34:24.378Z,0.00
2016-10-01T03:35:24.748Z,0.00
2016-10-01T03:36:25.251Z,0.00
2016-10-01T03:37:25.769Z,0.00
2016-10-01T03:38:26.269Z,0.00
2016-10-01T03:39:26.808Z,0.00
2016-10-01T03:40:27.293Z,0.00
2016-10-01T03:41:27.815Z,0.00
2016-10-01T03:42:28.317Z,0.00
2016-10-01T03:43:28.846Z,0.00
2016-10-01T03:44:29.346Z,0.00
2016-10-01T03:45:29.861Z,0.00
2016-10-01T03:46:30.375Z,0.00
2016-10-01T03:47:30.885Z,0.00
2016-10-01T03:48:31.398Z,0.00
2016-10-01T03:49:31.913Z,0.00
2016-10-01T03:50:32.727Z,0.00
2016-10-01T03:51:32.946Z,0.00
2016-10-01T03:52:33.453Z,0.00
2016-10-01T03:53:33.967Z,0.00
2016-10-01T03:54:34.482Z,0.00
2016-10-01T03:55:34.995Z,0.00
2016-10-01T03:56:35.537Z,0.00
2016-10-01T03:57:36.019Z,0.00
2016-10-01T03:58:36.543Z,0.00
2016-10-01T03:59:37.054Z,0.00
2016-10-01T04:00:37.572Z,0.00
2016-10-01T04:01:38.083Z,0.00
2016-10-01T04:02:38.596Z,0.00
2016-10-01T04:03:39.109Z,0.00
2016-10-01T04:04:39.621Z,0.00
2016-10-01T04:05:40.145Z,0.00
2016-10-01T04:06:40.643Z,0.00
2016-10-01T04:07:41.157Z,0.00
2016-10-01T04:08:41.688Z,0.00
2016-10-01T04:09:42.176Z,0.00
2016-10-01T04:10:42.690Z,0.00
2016-10-01T04:11:43.192Z,0.00
2016-10-01T04:12:43.703Z,0.00
2016-10-01T04:13:44.213Z,0.00
2016-10-01T04:14:44.723Z,0.00
2016-10-01T04:15:45.229Z,0.00
2016-10-01T04:16:45.746Z,0.00
2016-10-01T04:17:46.254Z,0.00
2016-10-01T04:18:46.917Z,0.00
2016-10-01T04:19:47.283Z,0.00
2016-10-01T04:20:47.800Z,0.00
2016-10-01T04:21:48.303Z,0.00
2016-10-01T04:22:48.818Z,0.00
2016-10-01T04:23:49.329Z,0.00
2016-10-01T04:24:49.857Z,0.00
2016-10-01T04:25:50.359Z,0.00
2016-10-01T04:26:50.859Z,0.00
2016-10-01T04:27:51.375Z,0.00
2016-10-01T04:28:51.921Z,0.00
2016-10-01T04:29:52.400Z,0.00
2016-10-01T04:30:52.903Z,0.00
2016-10-01T04:31:53.424Z,0.00
2016-10-01T04:32:54.074Z,0.00
2016-10-01T04:33:54.456Z,0.00
2016-10-01T04:34:54.950Z,0.00
2016-10-01T04:35:55.468Z,0.00
2016-10-01T04:36:56.132Z,0.00
2016-10-01T04:37:56.502Z,0.00
2016-10-01T04:38:57.013Z,0.00
2016-10-01T04:39:57.526Z,0.00
2016-10-01T04:40:58.041Z,0.00
2016-10-01T04:41:58.553Z,0.00
2016-10-01T04:42:59.068Z,0.00
2016-10-01T04:43:59.584Z,0.00
2016-10-01T04:45:00.098Z,0.00
2016-10-01T04:46:00.631Z,0.00
2016-10-01T04:47:01.116Z,0.00
2016-10-01T04:48:01.629Z,0.00
2016-10-01T04:49:02.149Z,0.00
2016-10-01T04:50:02.657Z,0.00
2016-10-01T04:51:03.322Z,0.00
2016-10-01T04:52:03.831Z,0.00
2016-10-01T04:53:04.948Z,0.00
2016-10-01T04:54:04.711Z,0.00
2016-10-01T04:55:05.233Z,0.00
2016-10-01T04:56:05.751Z,0.00
2016-10-01T04:57:06.248Z,0.00
2016-10-01T04:58:06.767Z,0.00
2016-10-01T04:59:07.267Z,0.00
2016-10-01T05:00:07.799Z,0.00
2016-10-01T05:01:08.295Z,0.00
2016-10-01T05:02:08.801Z,0.00
2016-10-01T05:03:09.316Z,0.00
2016-10-01T05:04:09.832Z,0.00
2016-10-01T05:05:10.345Z,0.00
2016-10-01T05:06:10.858Z,0.00
2016-10-01T05:07:11.365Z,0.00
2016-10-01T05:08:11.880Z,0.00
2016-10-01T05:09:12.392Z,0.00
2016-10-01T05:10:12.906Z,0.00
2016-10-01T05:11:13.437Z,0.00
2016-10-01T05:12:13.969Z,0.00
2016-10-01T05:13:14.461Z,0.00
2016-10-01T05:14:15.130Z,0.00
2016-10-01T05:15:15.491Z,0.00
2016-10-01T05:16:16.153Z,0.00
2016-10-01T05:17:16.521Z,0.00
2016-10-01T05:18:17.030Z,0.00
2016-10-01T05:19:17.551Z,0.00
2016-10-01T05:20:18.054Z,0.00
2016-10-01T05:21:18.567Z,0.00
2016-10-01T05:22:19.085Z,0.00
2016-10-01T05:23:19.760Z,0.00
2016-10-01T05:24:20.104Z,0.00
2016-10-01T05:25:22.120Z,0.00
2016-10-01T05:26:21.136Z,0.00
2016-10-01T05:27:21.638Z,0.00
2016-10-01T05:28:22.153Z,0.00
2016-10-01T05:29:22.661Z,0.00
2016-10-01T05:30:23.173Z,0.00
2016-10-01T05:31:23.686Z,0.00
2016-10-01T05:32:24.195Z,0.00
2016-10-01T05:33:24.711Z,0.00
2016-10-01T05:34:25.221Z,0.00
2016-10-01T05:35:25.733Z,0.00
2016-10-01T05:36:26.393Z,0.00
2016-10-01T05:37:26.760Z,0.00
2016-10-01T05:38:27.274Z,0.00
2016-10-01T05:39:27.788Z,0.00
2016-10-01T05:40:28.446Z,0.00
2016-10-01T05:41:28.808Z,0.00
2016-10-01T05:42:29.316Z,0.00
2016-10-01T05:43:29.825Z,0.00
2016-10-01T05:44:30.340Z,0.00
2016-10-01T05:45:30.849Z,0.00
2016-10-01T05:46:31.519Z,0.00
2016-10-01T05:47:31.874Z,0.00
2016-10-01T05:48:32.385Z,0.00
2016-10-01T05:49:33.046Z,0.00
2016-10-01T05:50:33.411Z,0.00
2016-10-01T05:51:33.932Z,0.00
2016-10-01T05:52:34.448Z,0.00
2016-10-01T05:53:34.966Z,0.00
2016-10-01T05:54:35.480Z,0.00
2016-10-01T05:55:36.287Z,0.00
2016-10-01T05:56:36.498Z,0.00
2016-10-01T05:57:37.007Z,0.00
2016-10-01T05:58:37.523Z,0.00
2016-10-01T05:59:38.037Z,0.00
2016-10-01T06:00:38.692Z,0.00
2016-10-01T06:01:39.058Z,0.00
2016-10-01T06:02:39.572Z,0.00
2016-10-01T06:03:40.082Z,0.00
2016-10-01T06:04:40.597Z,0.00
2016-10-01T06:05:41.262Z,0.00
2016-10-01T06:06:41.632Z,0.00
2016-10-01T06:07:42.138Z,0.00
2016-10-01T06:08:42.647Z,0.00
2016-10-01T06:09:43.164Z,0.00
2016-10-01T06:10:43.823Z,0.00
2016-10-01T06:11:44.184Z,0.00
2016-10-01T06:12:44.696Z,0.00
2016-10-01T06:13:45.214Z,0.00
2016-10-01T06:14:45.723Z,0.00
2016-10-01T06:15:46.231Z,0.00
2016-10-01T06:16:46.746Z,0.00
2016-10-01T06:17:47.255Z,0.00
2016-10-01T06:18:47.767Z,0.00
2016-10-01T06:19:48.277Z,0.00
2016-10-01T06:20:48.800Z,0.00
2016-10-01T06:21:49.306Z,0.00
2016-10-01T06:22:49.970Z,0.00
2016-10-01T06:23:50.326Z,0.00
2016-10-01T06:24:50.836Z,0.00
2016-10-01T06:25:51.352Z,1.00
2016-10-01T06:26:51.864Z,1.00
2016-10-01T06:27:52.530Z,1.00
2016-10-01T06:28:52.895Z,1.00
2016-10-01T06:29:53.413Z,1.00
2016-10-01T06:30:53.941Z,1.00
2016-10-01T06:31:54.467Z,1.00
2016-10-01T06:32:54.962Z,1.00
2016-10-01T06:33:55.474Z,1.00
2016-10-01T06:34:55.995Z,1.00
2016-10-01T06:35:56.501Z,1.00
2016-10-01T06:36:57.015Z,1.00
2016-10-01T06:37:57.527Z,1.00
2016-10-01T06:38:58.043Z,1.00
2016-10-01T06:39:58.555Z,1.00
2016-10-01T06:41:00.109Z,1.00
2016-10-01T06:41:59.716Z,1.00
2016-10-01T06:43:00.080Z,1.00
2016-10-01T06:44:00.590Z,1.00
2016-10-01T06:45:01.103Z,1.00
2016-10-01T06:46:01.612Z,1.00
2016-10-01T06:47:12.187Z,1.00
2016-10-01T06:48:02.631Z,1.00
2016-10-01T06:49:03.170Z,1.00
2016-10-01T06:50:03.657Z,1.00
2016-10-01T06:51:04.333Z,1.00
2016-10-01T06:52:04.702Z,1.00
2016-10-01T06:53:05.225Z,1.00
2016-10-01T06:54:05.745Z,1.00
2016-10-01T06:55:06.255Z,1.00
2016-10-01T06:56:06.915Z,1.00
2016-10-01T06:57:07.281Z,1.00
2016-10-01T06:58:07.798Z,1.00
2016-10-01T06:59:08.307Z,1.00
2016-10-01T07:00:08.818Z,1.00
2016-10-01T07:01:09.327Z,1.00
2016-10-01T07:02:09.855Z,1.00
2016-10-01T07:03:10.360Z,1.00
2016-10-01T07:04:10.863Z,1.00
2016-10-01T07:05:11.382Z,1.00
2016-10-01T07:06:11.899Z,1.00
2016-10-01T07:07:12.417Z,2.00
2016-10-01T07:08:12.930Z,2.00
2016-10-01T07:09:13.585Z,2.00
2016-10-01T07:10:13.946Z,2.00
2016-10-01T07:11:14.457Z,2.00
2016-10-01T07:12:14.974Z,2.00
2016-10-01T07:13:15.496Z,2.00
2016-10-01T07:14:16.000Z,2.00
2016-10-01T07:15:16.523Z,2.00
2016-10-01T07:16:17.032Z,2.00
2016-10-01T07:17:17.539Z,2.00
2016-10-01T07:18:18.052Z,9.00
2016-10-01T07:19:18.568Z,2.00
2016-10-01T07:20:19.077Z,2.00
2016-10-01T07:21:19.590Z,2.00
2016-10-01T07:22:20.105Z,2.00
2016-10-01T07:23:20.765Z,2.00
2016-10-01T07:24:21.276Z,2.00
2016-10-01T07:25:21.640Z,2.00
2016-10-01T07:26:22.156Z,2.00
2016-10-01T07:27:22.663Z,2.00
2016-10-01T07:28:23.175Z,2.00
2016-10-01T07:29:23.688Z,2.00
2016-10-01T07:30:24.203Z,2.00
2016-10-01T07:31:24.708Z,2.00
2016-10-01T07:32:25.224Z,2.00
2016-10-01T07:33:25.893Z,2.00
2016-10-01T07:34:26.244Z,2.00
2016-10-01T07:35:26.753Z,2.00
2016-10-01T07:36:27.271Z,2.00
2016-10-01T07:37:27.772Z,2.00
2016-10-01T07:38:28.285Z,2.00
2016-10-01T07:39:28.803Z,2.00
2016-10-01T07:40:29.310Z,2.00
2016-10-01T07:41:29.828Z,2.00
2016-10-01T07:42:30.345Z,9.00
2016-10-01T07:43:30.859Z,9.00
2016-10-01T07:44:31.387Z,2.00
2016-10-01T07:45:31.894Z,9.00
2016-10-01T07:46:32.405Z,3.00
2016-10-01T07:47:32.918Z,3.00
2016-10-01T07:48:33.880Z,3.00
2016-10-01T07:49:34.094Z,3.00
2016-10-01T07:50:34.615Z,3.00
2016-10-01T07:51:34.973Z,3.00
2016-10-01T07:52:35.479Z,3.00
2016-10-01T07:53:35.991Z,3.00
2016-10-01T07:54:36.508Z,3.00
2016-10-01T07:55:37.164Z,3.00
2016-10-01T07:56:37.536Z,3.00
2016-10-01T07:57:38.043Z,3.00
2016-10-01T07:58:38.559Z,3.00
2016-10-01T07:59:39.069Z,4.00
2016-10-01T08:00:39.601Z,4.00
2016-10-01T08:01:40.095Z,4.00
2016-10-01T08:02:40.606Z,4.00
2016-10-01T08:03:41.121Z,4.00
2016-10-01T08:04:41.651Z,4.00
2016-10-01T08:05:42.173Z,4.00
2016-10-01T08:06:42.658Z,4.00
2016-10-01T08:07:43.171Z,4.00
2016-10-01T08:08:43.678Z,4.00
2016-10-01T08:09:44.191Z,4.00
2016-10-01T08:10:44.704Z,5.00
2016-10-01T08:11:45.369Z,5.00
2016-10-01T08:12:45.728Z,5.00
2016-10-01T08:13:46.238Z,5.00
2016-10-01T08:14:46.763Z,6.00
2016-10-01T08:15:47.258Z,6.00
2016-10-01T08:16:47.784Z,5.00
2016-10-01T08:17:48.441Z,5.00
2016-10-01T08:18:48.832Z,5.00
2016-10-01T08:19:49.331Z,5.00
2016-10-01T08:20:49.843Z,5.00
2016-10-01T08:21:50.357Z,4.00
2016-10-01T08:22:50.868Z,4.00
2016-10-01T08:23:51.381Z,4.00
2016-10-01T08:24:51.891Z,4.00
2016-10-01T08:25:52.405Z,4.00
2016-10-01T08:26:52.919Z,4.00
2016-10-01T08:27:53.579Z,4.00
2016-10-01T08:28:53.934Z,4.00
2016-10-01T08:29:54.596Z,4.00
2016-10-01T08:30:54.956Z,4.00
2016-10-01T08:31:55.464Z,4.00
2016-10-01T08:32:56.152Z,4.00
2016-10-01T08:33:56.485Z,4.00
2016-10-01T08:34:57.000Z,4.00
2016-10-01T08:35:57.509Z,4.00
2016-10-01T08:36:58.028Z,4.00
2016-10-01T08:37:58.530Z,4.00
2016-10-01T08:38:59.046Z,3.00
2016-10-01T08:39:59.555Z,3.00
2016-10-01T08:41:00.072Z,3.00
2016-10-01T08:42:00.587Z,3.00
2016-10-01T08:43:01.243Z,3.00
2016-10-01T08:44:01.607Z,3.00
2016-10-01T08:45:02.267Z,3.00
2016-10-01T08:46:02.636Z,3.00
2016-10-01T08:47:03.148Z,3.00
2016-10-01T08:48:03.655Z,3.00
2016-10-01T08:49:04.161Z,3.00
2016-10-01T08:50:04.681Z,3.00
2016-10-01T08:51:05.186Z,4.00
2016-10-01T08:52:05.851Z,4.00
2016-10-01T08:53:06.210Z,3.00
2016-10-01T08:54:06.727Z,3.00
2016-10-01T08:55:07.237Z,4.00
2016-10-01T08:56:07.761Z,4.00
2016-10-01T08:57:09.168Z,4.00
2016-10-01T08:58:08.781Z,4.00
2016-10-01T08:59:09.300Z,4.00
2016-10-01T09:00:09.964Z,4.00
2016-10-01T09:01:10.484Z,4.00
2016-10-01T09:02:10.837Z,9.00
2016-10-01T09:03:11.349Z,9.00
2016-10-01T09:04:11.864Z,9.00
2016-10-01T09:05:12.379Z,4.00
2016-10-01T09:06:12.891Z,4.00
2016-10-01T09:07:13.399Z,4.00
2016-10-01T09:08:13.912Z,4.00
2016-10-01T09:09:14.574Z,3.00
2016-10-01T09:10:14.932Z,3.00
2016-10-01T09:11:15.444Z,4.00
2016-10-01T09:12:15.956Z,4.00
2016-10-01T09:13:16.480Z,4.00
2016-10-01T09:14:16.980Z,4.00
2016-10-01T09:15:17.495Z,4.00
2016-10-01T09:16:18.004Z,4.00
2016-10-01T09:17:18.518Z,4.00
2016-10-01T09:18:19.183Z,4.00
2016-10-01T09:19:19.547Z,4.00
2016-10-01T09:20:20.050Z,3.00
2016-10-01T09:21:20.570Z,3.00
2016-10-01T09:22:21.078Z,3.00
2016-10-01T09:23:21.601Z,3.00
2016-10-01T09:24:22.252Z,3.00
2016-10-01T09:25:22.642Z,3.00
2016-10-01T09:26:23.130Z,3.00
2016-10-01T09:27:23.792Z,3.00
2016-10-01T09:28:24.159Z,3.00
2016-10-01T09:29:24.671Z,3.00
2016-10-01T09:30:25.189Z,3.00
2016-10-01T09:31:25.702Z,3.00
2016-10-01T09:32:26.221Z,3.00
2016-10-01T09:33:26.881Z,3.00
2016-10-01T09:34:27.243Z,3.00
2016-10-01T09:35:27.785Z,3.00
2016-10-01T09:36:28.282Z,3.00
2016-10-01T09:37:28.786Z,3.00
2016-10-01T09:38:29.295Z,3.00
2016-10-01T09:39:29.809Z,3.00
2016-10-01T09:40:30.325Z,4.00
2016-10-01T09:41:30.983Z,4.00
2016-10-01T09:42:31.344Z,4.00
2016-10-01T09:43:31.854Z,3.00
2016-10-01T09:44:32.364Z,3.00
2016-10-01T09:45:32.877Z,3.00
2016-10-01T09:46:33.388Z,3.00
2016-10-01T09:47:33.897Z,3.00
2016-10-01T09:48:34.407Z,3.00
2016-10-01T09:49:34.922Z,3.00
2016-10-01T09:50:35.581Z,3.00
2016-10-01T09:51:35.944Z,3.00
2016-10-01T09:52:36.455Z,3.00
2016-10-01T09:53:36.989Z,3.00
2016-10-01T09:54:37.477Z,3.00
2016-10-01T09:55:37.992Z,3.00
2016-10-01T09:56:38.504Z,3.00
2016-10-01T09:57:39.012Z,3.00
2016-10-01T09:58:41.477Z,3.00
2016-10-01T09:59:40.035Z,3.00
2016-10-01T10:00:40.551Z,3.00
2016-10-01T10:01:41.060Z,3.00
2016-10-01T10:02:41.567Z,3.00
2016-10-01T10:03:42.089Z,3.00
2016-10-01T10:04:42.738Z,3.00
2016-10-01T10:05:43.248Z,3.00
2016-10-01T10:06:43.621Z,3.00
2016-10-01T10:07:44.141Z,3.00
2016-10-01T10:08:44.638Z,3.00
2016-10-01T10:09:45.151Z,3.00
2016-10-01T10:10:45.668Z,3.00
2016-10-01T10:11:46.185Z,3.00
2016-10-01T10:12:46.703Z,3.00
2016-10-01T10:13:47.225Z,2.00
2016-10-01T10:14:47.730Z,3.00
2016-10-01T10:15:48.236Z,3.00
2016-10-01T10:16:48.744Z,3.00
2016-10-01T10:17:49.265Z,3.00
2016-10-01T10:18:49.772Z,3.00
2016-10-01T10:19:50.281Z,3.00
2016-10-01T10:20:50.808Z,4.00
2016-10-01T10:21:51.333Z,4.00
2016-10-01T10:22:51.975Z,4.00
2016-10-01T10:23:52.336Z,4.00
2016-10-01T10:24:52.850Z,4.00
2016-10-01T10:25:53.367Z,3.00
2016-10-01T10:26:53.878Z,3.00
2016-10-01T10:27:54.390Z,3.00
2016-10-01T10:28:55.798Z,4.00
2016-10-01T10:29:55.406Z,4.00
2016-10-01T10:30:55.926Z,5.00
2016-10-01T10:31:56.439Z,5.00
2016-10-01T10:32:56.940Z,5.00
2016-10-01T10:33:57.603Z,5.00
2016-10-01T10:34:57.964Z,5.00
2016-10-01T10:35:58.477Z,6.00
2016-10-01T10:36:58.986Z,6.00
2016-10-01T10:37:59.497Z,6.00
2016-10-01T10:39:00.005Z,6.00
2016-10-01T10:40:00.526Z,6.00
2016-10-01T10:41:01.031Z,7.00
2016-10-01T10:42:01.548Z,7.00
2016-10-01T10:43:02.054Z,7.00
2016-10-01T10:44:02.565Z,8.00
2016-10-01T10:45:03.084Z,8.00
2016-10-01T10:46:03.595Z,8.00
2016-10-01T10:47:04.252Z,8.00
2016-10-01T10:48:04.636Z,8.00
2016-10-01T10:49:05.292Z,8.00
2016-10-01T10:50:05.661Z,9.00
2016-10-01T10:51:06.178Z,9.00
2016-10-01T10:52:06.691Z,19.00
2016-10-01T10:53:07.203Z,10.00
2016-10-01T10:54:07.714Z,11.00
2016-10-01T10:55:08.226Z,11.00
2016-10-01T10:56:08.737Z,11.00
2016-10-01T10:57:09.255Z,11.00
2016-10-01T10:58:09.765Z,11.00
2016-10-01T10:59:10.282Z,11.00
2016-10-01T11:00:10.795Z,11.00
2016-10-01T11:01:11.307Z,10.00
2016-10-01T11:02:11.811Z,10.00
2016-10-01T11:03:12.324Z,11.00
2016-10-01T11:04:12.836Z,11.00
2016-10-01T11:05:13.346Z,11.00
2016-10-01T11:06:13.855Z,11.00
2016-10-01T11:07:14.522Z,11.00
2016-10-01T11:08:14.881Z,12.00
2016-10-01T11:09:15.541Z,13.00
2016-10-01T11:10:15.933Z,13.00
2016-10-01T11:11:16.425Z,13.00
2016-10-01T11:12:16.934Z,13.00
2016-10-01T11:13:17.440Z,13.00
2016-10-01T11:14:17.955Z,14.00
2016-10-01T11:15:18.465Z,14.00
2016-10-01T11:16:18.980Z,14.00
2016-10-01T11:17:19.515Z,14.00
2016-10-01T11:18:20.150Z,14.00
2016-10-01T11:19:20.515Z,13.00
2016-10-01T11:20:21.025Z,13.00
2016-10-01T11:21:21.536Z,12.00
2016-10-01T11:22:22.043Z,12.00
2016-10-01T11:23:22.558Z,12.00
2016-10-01T11:24:23.065Z,11.00
2016-10-01T11:25:23.579Z,9.00
2016-10-01T11:26:24.095Z,9.00
2016-10-01T11:27:24.631Z,8.00
2016-10-01T11:28:25.123Z,8.00
2016-10-01T11:29:25.635Z,8.00
2016-10-01T11:30:26.148Z,9.00
2016-10-01T11:31:26.658Z,9.00
2016-10-01T11:32:27.316Z,9.00
2016-10-01T11:33:27.678Z,9.00
2016-10-01T11:34:29.541Z,9.00
2016-10-01T11:35:28.700Z,8.00
2016-10-01T11:36:29.208Z,7.00
2016-10-01T11:37:29.718Z,6.00
2016-10-01T11:38:30.229Z,7.00
2016-10-01T11:39:30.738Z,7.00
2016-10-01T11:40:31.246Z,7.00
2016-10-01T11:41:31.764Z,7.00
2016-10-01T11:42:32.277Z,7.00
2016-10-01T11:43:32.793Z,7.00
2016-10-01T11:44:33.301Z,7.00
2016-10-01T11:45:33.821Z,8.00
2016-10-01T11:46:34.344Z,8.00
2016-10-01T11:47:34.851Z,8.00
2016-10-01T11:48:35.357Z,8.00
2016-10-01T11:49:35.865Z,7.00
2016-10-01T11:50:36.379Z,9.00
2016-10-01T11:51:36.881Z,5.00
2016-10-01T11:52:37.544Z,5.00
2016-10-01T11:53:37.915Z,5.00
2016-10-01T11:54:38.418Z,6.00
2016-10-01T11:55:38.930Z,7.00
2016-10-01T11:56:39.444Z,7.00
2016-10-01T11:57:39.956Z,8.00
2016-10-01T11:58:40.470Z,8.00
2016-10-01T11:59:40.977Z,9.00
2016-10-01T12:00:41.641Z,9.00
2016-10-01T12:01:42.017Z,9.00
2016-10-01T12:02:42.524Z,9.00
2016-10-01T12:03:43.048Z,9.00
2016-10-01T12:04:43.704Z,19.00
2016-10-01T12:05:44.066Z,10.00
2016-10-01T12:06:44.587Z,10.00
2016-10-01T12:07:45.088Z,10.00
2016-10-01T12:08:45.602Z,10.00
2016-10-01T12:09:46.122Z,9.00
2016-10-01T12:10:46.632Z,8.00
2016-10-01T12:11:47.147Z,9.00
2016-10-01T12:12:47.667Z,9.00
2016-10-01T12:13:48.173Z,9.00
2016-10-01T12:14:48.711Z,19.00
2016-10-01T12:15:49.351Z,10.00
2016-10-01T12:16:49.728Z,11.00
2016-10-01T12:17:50.219Z,11.00
2016-10-01T12:18:50.729Z,11.00
2016-10-01T12:19:51.237Z,11.00
2016-10-01T12:20:51.749Z,11.00
2016-10-01T12:21:52.261Z,19.00
2016-10-01T12:22:52.931Z,11.00
2016-10-01T12:23:53.438Z,10.00
2016-10-01T12:24:53.797Z,10.00
2016-10-01T12:25:54.309Z,10.00
2016-10-01T12:26:54.826Z,9.00
2016-10-01T12:27:55.337Z,9.00
2016-10-01T12:28:55.992Z,9.00
2016-10-01T12:29:56.358Z,9.00
2016-10-01T12:30:56.871Z,9.00
2016-10-01T12:31:57.381Z,9.00
2016-10-01T12:32:58.042Z,9.00
2016-10-01T12:33:58.411Z,9.00
2016-10-01T12:34:58.927Z,9.00
2016-10-01T12:35:59.439Z,9.00
2016-10-01T12:36:59.952Z,9.00
2016-10-01T12:38:00.474Z,9.00
2016-10-01T12:39:00.989Z,9.00
2016-10-01T12:40:01.507Z,9.00
2016-10-01T12:41:02.022Z,9.00
2016-10-01T12:42:02.543Z,9.00
2016-10-01T12:43:03.054Z,19.00
2016-10-01T12:44:03.711Z,10.00
2016-10-01T12:45:04.074Z,11.00
2016-10-01T12:46:04.583Z,11.00
2016-10-01T12:47:05.102Z,11.00
2016-10-01T12:48:05.614Z,19.00
2016-10-01T12:49:06.127Z,12.00
2016-10-01T12:50:06.633Z,12.00
2016-10-01T12:51:07.148Z,11.00
2016-10-01T12:52:07.653Z,11.00
2016-10-01T12:53:08.172Z,11.00
2016-10-01T12:54:08.679Z,10.00
2016-10-01T12:55:09.188Z,10.00
2016-10-01T12:56:09.706Z,9.00
2016-10-01T12:57:10.211Z,9.00
2016-10-01T12:58:10.878Z,19.00
2016-10-01T13:00:07.403Z,10.00
2016-10-01T13:01:12.270Z,10.00
2016-10-01T13:02:12.781Z,10.00
2016-10-01T13:03:13.289Z,10.00
2016-10-01T13:04:13.802Z,11.00
2016-10-01T13:05:14.319Z,19.00
2016-10-01T13:06:14.830Z,11.00
2016-10-01T13:07:15.342Z,11.00
2016-10-01T13:08:15.998Z,10.00
2016-10-01T13:09:16.363Z,19.00
2016-10-01T13:10:16.881Z,10.00
2016-10-01T13:11:17.401Z,10.00
2016-10-01T13:12:17.942Z,10.00
2016-10-01T13:13:18.426Z,19.00
2016-10-01T13:14:18.948Z,19.00
2016-10-01T13:15:19.452Z,10.00
2016-10-01T13:16:19.968Z,10.00
2016-10-01T13:17:20.634Z,10.00
2016-10-01T13:18:21.002Z,11.00
2016-10-01T13:19:21.663Z,11.00
2016-10-01T13:20:22.025Z,11.00
2016-10-01T13:21:22.550Z,11.00
2016-10-01T13:22:23.056Z,12.00
2016-10-01T13:23:23.566Z,13.00